LTBALTFC

Guest
Details From LTBA - Istanbul Ataturk
To LTFC - SULEYMAN DEMIREL
Flight Number -
Tags generated
Created
Modified
Stats Distance 201 nm / 372 km
Max Altitude 21,900 ft / 6,675 m
Waypoints 4
Social Downloads 3
Likes 0
Share VATSIM

Download

Looking for another format? Having issues loading an existing format? Contact us
Advertisement - Login to hide

Notes

Basic altitude profile: - Ascent Rate: 2500ft/min - Ascent Speed: 250kts - Cruise Altitude: 35000ft - Cruise Speed: 420kts - Descent Rate: 1500ft/min - Descent Speed: 250kts Options: - Use NATs: yes - Use PACOTS: yes - Use low airways: yes - Use high airways: yes

Route

LTBA KUTAY T35 TEKDO LTFC

ID Type Via Altitude Latitude Longitude Leg Dist Tot Dist Heading (true) Name
O LTBA APT - 0 ft / 0 m 40.97914˚ 28.81283˚ - 0 nm - Istanbul Ataturk
KUTAY FIX - 21,900 ft / 6,675 m 39.46167˚ 29.62194˚ 98 nm 98 nm 158° / 158° -
TEKDO FIX T35 (AWY-LO) 19,500 ft / 5,944 m 38.33833˚ 30.15694˚ 71 nm 170 nm 159° / 160° -
O LTFC APT - 0 ft / 0 m 37.85541˚ 30.36840˚ 30 nm 201 nm 161° / 161° SULEYMAN DEMIREL

Altitude Profile

Advertisement - Login to hide

Weather


0- 5 10 15 20 25 30 35+ Temperature / ° C

Clouds and Precipitation
Forecast for 2017-12-12 00:00 UTC. Updated 26 minutes ago

Ground ~20,000 ft ~40,000 ft Winds

LTBA

Details ICAO LTBA (IST)
Name Istanbul Ataturk
Region Turkey
Timezone Europe/Istanbul (UTC+3.0)
Stats Elevation 163 ft / 50 m (AMSL)
Location 40.979136° 28.812832°
Runways 3
Magnetic Variation 5.428° E

METAR

LTBA 111920Z 23014KT CAVOK 14/10 Q1022 NOSIG

Decode

TAF

Not found

Departure Runways

ID Width Length Bearing (true) Bearing (mag) Surface Threshold Offset Overrun Length
05 197 ft / 60 m 8,514 ft / 2,595 m 58.64° 53.21° Concrete 400 ft / 122 m 197 ft / 60 m
17L 148 ft / 45 m 9,820 ft / 2,993 m 178.48° 173.05° Concrete 0 ft / 0 m 197 ft / 60 m
17R 148 ft / 45 m 9,858 ft / 3,005 m 178.49° 173.06° Concrete 0 ft / 0 m 0 ft / 0 m
23 197 ft / 60 m 8,514 ft / 2,595 m 238.65° 233.22° Concrete 0 ft / 0 m 197 ft / 60 m
35L 148 ft / 45 m 9,858 ft / 3,005 m 358.49° 353.06° Concrete 0 ft / 0 m 200 ft / 61 m
35R 148 ft / 45 m 9,820 ft / 2,993 m 358.48° 353.05° Concrete 0 ft / 0 m 197 ft / 60 m

LTFC

Details ICAO LTFC (ISE)
Name SULEYMAN DEMIREL
Region Turkey
Timezone Europe/Istanbul (UTC+3.0)
Stats Elevation 2,835 ft / 864 m (AMSL)
Location 37.855415° 30.368399°
Runways 1
Magnetic Variation 5.155° E

METAR

LTFC 111920Z VRB02KT 9999 SCT035 05/03 Q1026

Decode

TAF

Not found

Destination Runways

ID Width Length Bearing (true) Bearing (mag) Surface Threshold Offset Overrun Length
05 148 ft / 45 m 9,856 ft / 3,004 m 49.51° 44.36° Concrete 0 ft / 0 m 190 ft / 58 m
23 148 ft / 45 m 9,856 ft / 3,004 m 229.52° 224.37° Concrete 0 ft / 0 m 190 ft / 58 m

Popular Alternatives